Time;durP1;ratioP1;P1;durP2;ratioP2;P2;SDS_P1;SDS_P2;PMS_P1;PMS_P2;Temp;Humidity;BMP_temperature;BMP_pressure;BME280_temperature;BME280_humidity;BME280_pressure;Samples;Min_cycle;Max_cycle;Signal;HPM_P1;HPM_P2
2021/12/16 00:08:37;;;;;;;11.27;6.07;;;20.50;75.20;;;;;;10623435;28;20127;-55
2021/12/16 00:35:07;;;;;;;11.25;6.07;;;20.40;74.70;;;;;;10613065;27;20047;-54
2021/12/16 00:40:13;;;;;;;10.57;5.95;;;20.30;74.40;;;;;;10613141;27;20043;-53
2021/12/16 00:45:39;;;;;;;12.32;6.45;;;20.30;74.30;;;;;;10630956;27;20051;-54
2021/12/16 00:55:54;;;;;;;11.23;5.97;;;20.20;74.30;;;;;;10611993;27;20051;-55
2021/12/16 01:01:13;;;;;;;11.40;6.80;;;20.20;75.20;;;;;;10611864;27;20046;-52
2021/12/16 01:39:29;;;;;;;16.65;9.60;;;20.00;74.70;;;;;;10628907;27;20043;-54
2021/12/16 01:49:57;;;;;;;16.42;9.43;;;19.90;75.00;;;;;;10610527;27;20058;-54
2021/12/16 02:00:57;;;;;;;16.52;9.52;;;19.80;75.20;;;;;;10609804;27;20069;-55
2021/12/16 02:06:12;;;;;;;14.73;8.95;;;19.80;75.40;;;;;;10610185;27;20441;-55
2021/12/16 02:27:33;;;;;;;13.73;8.85;;;19.70;75.60;;;;;;10609471;27;20047;-54
2021/12/16 02:37:48;;;;;;;12.35;7.50;;;19.70;75.70;;;;;;10608925;27;20047;-53
2021/12/16 02:43:25;;;;;;;21.63;7.55;;;19.70;75.90;;;;;;10591828;27;20108;-51
2021/12/16 02:48:36;;;;;;;9.55;7.07;;;19.60;76.10;;;;;;10608548;27;20077;-54
2021/12/16 02:54:04;;;;;;;23.10;7.40;;;19.60;75.90;;;;;;10607500;27;20477;-54
2021/12/16 02:59:11;;;;;;;13.77;7.32;;;19.60;76.00;;;;;;10626796;27;20043;-54
2021/12/16 03:04:18;;;;;;;23.73;7.22;;;19.50;75.80;;;;;;10607591;27;20051;-54
2021/12/16 03:10:01;;;;;;;13.48;7.07;;;19.50;75.70;;;;;;10607099;27;20043;-54
2021/12/16 03:14:59;;;;;;;12.75;7.18;;;19.50;75.80;;;;;;10625003;27;20047;-53
2021/12/16 03:20:14;;;;;;;10.25;6.68;;;19.50;75.70;;;;;;10607680;27;20043;-52
2021/12/16 03:25:42;;;;;;;10.77;6.53;;;19.40;75.70;;;;;;10624715;27;20552;-54
2021/12/16 03:36:28;;;;;;;10.80;6.88;;;19.40;75.50;;;;;;10623867;27;20055;-54
2021/12/16 03:41:34;;;;;;;9.80;6.43;;;19.40;75.50;;;;;;10624268;27;20047;-53
2021/12/16 03:46:46;;;;;;;9.68;6.13;;;19.40;75.60;;;;;;10624934;27;20043;-54
2021/12/16 03:52:06;;;;;;;10.45;5.80;;;19.40;75.60;;;;;;10605535;27;20059;-54
2021/12/16 03:57:20;;;;;;;8.63;6.30;;;19.30;75.60;;;;;;10606131;28;20051;-55
2021/12/16 04:02:30;;;;;;;8.85;5.85;;;19.30;75.70;;;;;;10605841;28;20095;-54
2021/12/16 04:07:38;;;;;;;8.00;5.47;;;19.30;75.80;;;;;;10606232;28;20047;-54
2021/12/16 04:12:54;;;;;;;8.90;6.07;;;19.40;75.40;;;;;;10605774;28;20487;-54
2021/12/16 04:18:01;;;;;;;11.23;5.78;;;19.50;74.50;;;;;;10605932;28;20043;-54
2021/12/16 04:23:09;;;;;;;10.93;5.55;;;19.60;74.40;;;;;;10605360;28;20123;-53
2021/12/16 04:28:25;;;;;;;;;;;19.70;74.40;;;;;;10605645;28;20047;-54
2021/12/16 04:33:39;;;;;;;8.77;4.88;;;19.90;74.10;;;;;;10570490;28;19928;-54
2021/12/16 04:38:47;;;;;;;11.32;4.60;;;20.00;73.60;;;;;;10564984;28;20461;-51
2021/12/16 04:43:54;;;;;;;7.60;4.67;;;20.20;73.10;;;;;;10621387;28;20072;-54
2021/12/16 04:49:00;;;;;;;9.52;4.30;;;20.30;72.70;;;;;;10605316;28;20437;-54
2021/12/16 04:54:13;;;;;;;8.40;4.25;;;20.40;72.40;;;;;;10587804;28;20059;-54
2021/12/16 04:59:20;;;;;;;8.27;4.10;;;20.50;72.00;;;;;;10639450;27;20080;-54
2021/12/16 05:04:27;;;;;;;9.18;4.40;;;20.60;71.80;;;;;;10609351;27;20051;-54
2021/12/16 05:10:02;;;;;;;8.77;3.70;;;20.70;71.60;;;;;;10612012;27;20076;-54
2021/12/16 05:14:57;;;;;;;12.07;3.95;;;20.80;71.40;;;;;;10629980;27;20484;-54
2021/12/16 05:20:09;;;;;;;7.80;3.75;;;20.80;71.20;;;;;;10630228;27;20043;-54
2021/12/16 05:25:36;;;;;;;11.93;3.88;;;20.90;71.00;;;;;;10612389;27;20047;-54
2021/12/16 05:30:41;;;;;;;9.65;3.85;;;21.00;70.80;;;;;;10630089;27;20096;-55
2021/12/16 05:35:47;;;;;;;5.32;3.47;;;21.00;70.60;;;;;;10611571;27;20039;-54
2021/12/16 05:40:53;;;;;;;5.28;3.58;;;21.00;70.60;;;;;;10611053;27;20096;-55
2021/12/16 05:46:09;;;;;;;5.57;3.28;;;21.10;70.40;;;;;;10610766;27;20490;-55
2021/12/16 05:51:21;;;;;;;6.25;3.33;;;21.10;70.40;;;;;;10628487;27;20043;-54
2021/12/16 05:56:27;;;;;;;9.50;3.50;;;21.10;70.20;;;;;;10610177;27;20043;-54
2021/12/16 06:01:37;;;;;;;6.50;3.22;;;21.10;70.20;;;;;;10593728;27;20047;-54
2021/12/16 06:06:43;;;;;;;7.22;3.33;;;21.20;70.20;;;;;;10610293;27;20059;-54
2021/12/16 06:11:51;;;;;;;4.80;3.00;;;21.20;70.00;;;;;;10609582;27;20047;-54
2021/12/16 06:27:35;;;;;;;15.07;2.67;;;21.10;70.80;;;;;;10618955;27;20491;-55
2021/12/16 06:32:40;;;;;;;7.43;2.70;;;21.10;71.00;;;;;;10566405;28;20408;-54
2021/12/16 06:37:45;;;;;;;4.97;2.83;;;21.00;70.70;;;;;;10584739;28;20047;-53
2021/12/16 06:43:02;;;;;;;6.18;2.97;;;20.90;70.70;;;;;;10566024;28;20104;-54
2021/12/16 06:48:13;;;;;;;11.43;2.50;;;20.90;70.90;;;;;;10566330;28;20553;-53
2021/12/16 06:53:29;;;;;;;7.40;2.58;;;20.80;70.90;;;;;;10583404;28;20051;-53
2021/12/16 06:58:45;;;;;;;23.38;2.80;;;20.80;70.90;;;;;;10583093;28;20048;-54
2021/12/16 07:03:50;;;;;;;5.88;2.47;;;20.70;70.90;;;;;;10583670;28;20093;-53
2021/12/16 07:08:59;;;;;;;9.10;2.35;;;20.70;70.90;;;;;;10583436;28;20104;-53
2021/12/16 07:14:05;;;;;;;3.20;2.42;;;20.70;71.10;;;;;;10583283;28;20042;-54
2021/12/16 07:19:10;;;;;;;16.35;2.10;;;20.60;71.00;;;;;;10582677;28;20044;-54
2021/12/16 07:24:18;;;;;;;10.30;2.70;;;20.60;71.10;;;;;;10582073;28;20073;-55
2021/12/16 07:29:24;;;;;;;8.52;2.20;;;20.60;71.20;;;;;;10582149;28;20484;-53
2021/12/16 07:34:30;;;;;;;7.90;2.30;;;20.60;70.90;;;;;;10581863;28;20047;-54
2021/12/16 07:39:41;;;;;;;7.85;2.45;;;20.60;71.10;;;;;;10581846;28;20048;-54
2021/12/16 07:44:46;;;;;;;3.83;2.08;;;20.50;71.50;;;;;;10564285;28;20040;-55
2021/12/16 07:49:50;;;;;;;8.13;2.30;;;20.50;70.90;;;;;;10581369;28;20100;-53
2021/12/16 07:54:56;;;;;;;6.40;2.60;;;20.50;70.80;;;;;;10581233;28;20109;-53
2021/12/16 08:00:01;;;;;;;7.75;2.10;;;20.40;70.80;;;;;;10581387;28;20044;-54
2021/12/16 08:05:16;;;;;;;4.95;2.20;;;20.40;70.60;;;;;;10565602;28;20093;-55
2021/12/16 08:10:24;;;;;;;6.05;2.40;;;20.40;70.60;;;;;;10581233;28;20048;-55
2021/12/16 08:15:29;;;;;;;7.78;1.92;;;20.40;70.70;;;;;;10563006;28;20389;-55
2021/12/16 08:20:34;;;;;;;4.25;1.92;;;20.40;70.50;;;;;;10581080;28;20073;-55
2021/12/16 08:25:39;;;;;;;4.78;1.95;;;20.30;70.50;;;;;;10562667;28;20047;-55
2021/12/16 08:30:49;;;;;;;3.80;2.03;;;20.30;70.40;;;;;;10580713;28;20052;-54
2021/12/16 08:35:56;;;;;;;3.13;1.80;;;20.30;70.60;;;;;;10580557;28;20055;-55
2021/12/16 08:41:10;;;;;;;4.80;1.48;;;20.30;70.50;;;;;;10588280;28;20393;-55
2021/12/16 08:46:18;;;;;;;4.47;2.10;;;20.30;70.50;;;;;;10588329;28;20048;-54
2021/12/16 08:51:28;;;;;;;3.97;1.63;;;20.20;70.60;;;;;;10589049;28;20044;-54
2021/12/16 08:56:34;;;;;;;13.52;2.15;;;20.20;70.70;;;;;;10594393;27;20055;-53
2021/12/16 09:01:46;;;;;;;4.35;1.90;;;20.20;71.10;;;;;;10599700;27;20569;-52
2021/12/16 09:06:52;;;;;;;8.85;1.88;;;20.10;71.40;;;;;;10569782;28;20044;-52
2021/12/16 09:12:06;;;;;;;12.07;2.20;;;20.10;71.50;;;;;;10587769;28;20047;-53
2021/12/16 09:17:14;;;;;;;12.27;1.60;;;20.00;71.50;;;;;;10622430;27;20046;-50
2021/12/16 09:22:21;;;;;;;9.57;1.70;;;20.00;71.50;;;;;;10611576;27;20043;-52
2021/12/16 09:27:29;;;;;;;3.03;1.42;;;20.00;71.80;;;;;;10629676;27;20448;-49
2021/12/16 09:32:35;;;;;;;8.20;1.65;;;19.90;72.10;;;;;;10629355;27;20047;-50
2021/12/16 09:37:41;;;;;;;6.50;1.52;;;19.80;72.30;;;;;;10628344;27;20368;-54
2021/12/16 09:42:46;;;;;;;11.80;1.90;;;19.80;72.50;;;;;;10625432;27;20035;-53
2021/12/16 09:47:52;;;;;;;23.88;2.30;;;19.90;72.30;;;;;;10624989;27;20482;-55
2021/12/16 09:52:59;;;;;;;14.07;1.50;;;20.00;72.10;;;;;;10624606;27;20483;-54
2021/12/16 09:58:05;;;;;;;9.57;1.48;;;20.00;72.30;;;;;;10626794;27;20077;-51
2021/12/16 10:03:10;;;;;;;7.50;1.83;;;20.00;72.50;;;;;;10628089;27;20051;-49
2021/12/16 10:08:16;;;;;;;13.73;1.55;;;20.00;72.60;;;;;;10628041;27;20092;-50
2021/12/16 10:13:31;;;;;;;5.93;1.45;;;20.00;72.50;;;;;;10627494;27;20053;-53
2021/12/16 10:18:40;;;;;;;4.60;1.00;;;20.00;72.50;;;;;;10627217;27;20437;-55
2021/12/16 10:23:45;;;;;;;5.38;1.58;;;20.00;72.60;;;;;;10627702;27;20051;-54
2021/12/16 10:28:54;;;;;;;4.93;1.10;;;20.00;72.80;;;;;;10626787;27;20051;-49
2021/12/16 10:34:05;;;;;;;4.55;1.20;;;20.10;73.10;;;;;;10627484;27;20032;-54
2021/12/16 10:39:13;;;;;;;2.85;0.80;;;20.20;73.00;;;;;;10626689;27;20441;-54
2021/12/16 10:44:33;;;;;;;2.05;0.90;;;20.20;73.00;;;;;;10626467;27;20051;-55
2021/12/16 10:49:42;;;;;;;4.38;1.25;;;20.30;72.70;;;;;;10626797;27;20043;-55
2021/12/16 10:54:49;;;;;;;5.43;1.00;;;20.20;73.10;;;;;;10626492;27;20058;-51
2021/12/16 10:59:59;;;;;;;3.92;1.10;;;20.20;73.20;;;;;;10625013;27;20043;-55
2021/12/16 11:05:11;;;;;;;2.28;0.88;;;20.20;73.40;;;;;;10626299;27;20047;-51
2021/12/16 11:10:21;;;;;;;3.70;1.13;;;20.20;73.40;;;;;;10625412;27;20047;-53
2021/12/16 11:15:35;;;;;;;3.97;0.95;;;20.20;73.10;;;;;;10624302;27;20081;-53
2021/12/16 11:20:40;;;;;;;3.83;1.00;;;20.30;72.90;;;;;;10624230;27;20095;-51
2021/12/16 11:26:02;;;;;;;4.47;1.20;;;20.30;72.90;;;;;;10624718;27;20216;-53
2021/12/16 11:31:12;;;;;;;3.20;1.13;;;20.40;72.70;;;;;;10625388;27;20039;-54
2021/12/16 11:36:31;;;;;;;5.93;1.40;;;20.50;72.30;;;;;;10624186;27;20051;-53
2021/12/16 11:41:40;;;;;;;;;;;20.60;72.20;;;;;;10623748;27;20050;-55
2021/12/16 11:46:58;;;;;;;2.10;1.08;;;20.60;72.10;;;;;;10623721;27;19930;-54
2021/12/16 11:52:13;;;;;;;2.78;1.17;;;20.70;72.00;;;;;;10623954;27;20073;-53
2021/12/16 11:57:52;;;;;;;3.97;1.15;;;20.80;71.90;;;;;;10623757;27;20054;-49
2021/12/16 12:03:05;;;;;;;1.45;1.10;;;20.80;71.90;;;;;;10619832;28;20047;-50
2021/12/16 12:08:23;;;;;;;3.28;1.40;;;20.80;71.50;;;;;;10623167;28;20062;-54
2021/12/16 12:13:34;;;;;;;4.57;1.20;;;20.80;71.50;;;;;;10629748;27;20043;-56
2021/12/16 12:18:53;;;;;;;5.47;1.33;;;20.80;71.60;;;;;;10632760;27;20043;-54
2021/12/16 12:24:18;;;;;;;4.90;1.33;;;20.90;71.70;;;;;;10631347;27;20046;-52
2021/12/16 12:29:27;;;;;;;5.22;1.30;;;20.90;71.80;;;;;;10632102;27;20081;-54
2021/12/16 12:34:34;;;;;;;5.63;2.72;;;20.90;71.70;;;;;;10631598;27;20400;-51
2021/12/16 12:39:44;;;;;;;6.40;3.38;;;20.90;71.60;;;;;;10631404;27;20444;-55
2021/12/16 12:44:50;;;;;;;7.32;4.40;;;21.00;71.70;;;;;;10631315;27;20468;-53
2021/12/16 12:50:06;;;;;;;9.20;4.75;;;20.90;71.80;;;;;;10631134;27;20487;-55
2021/12/16 12:55:17;;;;;;;10.25;4.10;;;21.00;72.10;;;;;;10631081;27;20076;-54
2021/12/16 13:01:00;;;;;;;8.48;3.72;;;21.00;72.10;;;;;;10631479;27;20043;-53
2021/12/16 13:06:08;;;;;;;11.02;3.58;;;20.90;72.20;;;;;;10627411;27;20068;-49
2021/12/16 13:11:25;;;;;;;9.60;3.83;;;20.80;72.40;;;;;;10629544;27;20039;-53
2021/12/16 13:16:52;;;;;;;7.05;3.80;;;20.80;72.70;;;;;;10630427;27;20088;-51
2021/12/16 13:27:46;;;;;;;7.75;4.00;;;20.80;72.70;;;;;;10629454;27;20047;-49
2021/12/16 13:33:24;;;;;;;7.25;3.42;;;20.80;72.60;;;;;;10629368;27;20065;-50
2021/12/16 13:38:39;;;;;;;11.73;3.85;;;20.70;73.10;;;;;;10628666;27;20491;-50
2021/12/16 13:44:08;;;;;;;25.73;4.78;;;20.60;73.20;;;;;;10626874;27;20043;-58
2021/12/16 14:06:21;;;;;;;14.80;3.65;;;20.40;73.20;;;;;;10627883;27;20100;-53
2021/12/16 14:17:28;;;;;;;11.93;3.00;;;20.30;72.70;;;;;;10628198;27;20043;-51
2021/12/16 14:39:13;;;;;;;6.05;2.35;;;20.60;71.20;;;;;;10626848;27;20436;-50
2021/12/16 14:49:45;;;;;;;10.32;4.18;;;21.10;69.90;;;;;;10626832;27;20047;-51
2021/12/16 14:54:54;;;;;;;9.80;4.20;;;21.30;69.40;;;;;;10626722;27;20100;-53
2021/12/16 15:00:21;;;;;;;9.43;4.13;;;21.40;69.10;;;;;;10625840;27;20064;-51
2021/12/16 15:05:41;;;;;;;13.45;5.70;;;21.50;68.70;;;;;;10625571;27;20051;-51
2021/12/16 15:10:46;;;;;;;16.60;7.38;;;21.70;68.50;;;;;;10625980;27;20043;-51
2021/12/16 15:16:23;;;;;;;1999.90;999.90;;;21.80;68.10;;;;;;10625225;27;20047;-51
2021/12/16 15:37:56;;;;;;;1999.90;999.90;;;22.00;67.40;;;;;;10624651;27;20051;-53
2021/12/16 15:43:05;;;;;;;1999.90;999.90;;;22.10;67.30;;;;;;10624170;27;20544;-53
2021/12/16 15:48:17;;;;;;;1999.90;999.90;;;22.10;67.10;;;;;;10606566;27;20039;-53
2021/12/16 15:53:31;;;;;;;1999.90;999.90;;;22.10;67.10;;;;;;10623897;27;20051;-51
2021/12/16 15:58:42;;;;;;;1999.90;999.90;;;22.10;67.10;;;;;;10623658;27;20108;-53
2021/12/16 16:03:48;;;;;;;1999.90;999.90;;;22.10;67.10;;;;;;10624051;28;20047;-53
2021/12/16 16:09:10;;;;;;;1999.90;999.90;;;22.00;67.30;;;;;;10624270;28;20044;-52
2021/12/16 16:14:17;;;;;;;1999.90;999.90;;;22.00;67.30;;;;;;10623567;28;20407;-51
2021/12/16 16:19:41;;;;;;;1999.90;999.90;;;22.00;67.30;;;;;;10623478;28;20047;-50
2021/12/16 16:24:49;;;;;;;1999.90;999.90;;;21.90;67.40;;;;;;10623972;28;20065;-51
2021/12/16 16:29:59;;;;;;;1999.90;999.90;;;21.90;67.40;;;;;;10623895;28;20395;-53
2021/12/16 16:35:04;;;;;;;1999.90;999.90;;;21.80;67.40;;;;;;10589098;28;20548;-51
2021/12/16 16:40:12;;;;;;;1999.90;999.90;;;21.80;67.50;;;;;;10623036;28;20039;-53
2021/12/16 16:45:23;;;;;;;1999.90;999.90;;;21.80;67.60;;;;;;10623000;28;20096;-51
2021/12/16 16:50:28;;;;;;;1999.90;999.90;;;21.70;67.60;;;;;;10624491;28;20051;-54
2021/12/16 16:55:35;;;;;;;1999.90;999.90;;;21.70;67.70;;;;;;10622760;28;20453;-53
2021/12/16 17:00:43;;;;;;;1999.90;999.90;;;21.60;67.70;;;;;;10593506;27;20500;-53
2021/12/16 17:05:57;;;;;;;1999.90;999.90;;;21.60;67.80;;;;;;10612584;27;20054;-53
2021/12/16 17:11:15;;;;;;;1999.90;999.90;;;21.50;67.80;;;;;;10630067;27;20055;-50
2021/12/16 17:21:53;;;;;;;1999.90;999.90;;;21.40;68.00;;;;;;10630371;27;20043;-52
2021/12/16 17:27:09;;;;;;;1999.90;999.90;;;21.40;68.00;;;;;;10611585;27;20051;-53
2021/12/16 17:32:17;;;;;;;1999.90;999.90;;;21.30;67.90;;;;;;10630214;27;20047;-53
2021/12/16 17:37:30;;;;;;;1999.90;999.90;;;21.30;68.00;;;;;;10629201;27;20115;-52
2021/12/16 17:42:56;;;;;;;1999.90;999.90;;;21.20;68.20;;;;;;10629684;27;20040;-50
2021/12/16 17:48:06;;;;;;;1999.90;999.90;;;21.10;68.30;;;;;;10593888;27;20072;-52
2021/12/16 17:53:12;;;;;;;1999.90;999.90;;;21.10;68.40;;;;;;10611342;27;20061;-50
2021/12/16 17:58:28;;;;;;;1999.90;999.90;;;21.00;68.40;;;;;;10628279;27;20058;-51
2021/12/16 18:03:40;;;;;;;1999.90;999.90;;;21.00;68.40;;;;;;10628103;27;20403;-53
2021/12/16 18:08:55;;;;;;;1999.90;999.90;;;21.00;68.30;;;;;;10628332;27;20047;-51
2021/12/16 18:14:06;;;;;;;1999.90;999.90;;;21.00;68.30;;;;;;10628309;27;20475;-52
2021/12/16 18:19:20;;;;;;;1999.90;999.90;;;20.90;68.20;;;;;;10627541;27;20100;-52
2021/12/16 18:24:40;;;;;;;1999.90;999.90;;;20.90;68.20;;;;;;10628030;27;20418;-50
2021/12/16 18:29:45;;;;;;;1999.90;999.90;;;20.90;68.30;;;;;;10627801;27;20084;-50
2021/12/16 18:34:51;;;;;;;1999.90;999.90;;;20.80;68.30;;;;;;10626765;27;20073;-52
2021/12/16 18:39:58;;;;;;;1999.90;999.90;;;20.70;68.50;;;;;;10627287;27;20069;-51
2021/12/16 18:45:18;;;;;;;1999.90;999.90;;;20.70;68.50;;;;;;10627384;27;20040;-52
2021/12/16 18:51:04;;;;;;;1999.90;999.90;;;20.60;68.50;;;;;;10626120;27;20047;-53
2021/12/16 18:56:09;;;;;;;1999.90;999.90;;;20.60;68.40;;;;;;10626490;27;20575;-53
2021/12/16 19:01:34;;;;;;;1999.90;999.90;;;20.60;68.30;;;;;;10607685;27;20564;-50
2021/12/16 19:06:43;;;;;;;1999.90;999.90;;;20.60;68.20;;;;;;10607851;27;20403;-53
2021/12/16 19:11:56;;;;;;;1999.90;999.90;;;20.60;68.00;;;;;;10625370;27;20556;-52
2021/12/16 19:17:04;;;;;;;1999.90;999.90;;;20.60;68.00;;;;;;10625883;27;20039;-53
2021/12/16 19:22:13;;;;;;;1999.90;999.90;;;20.60;68.00;;;;;;10624301;27;20043;-52
2021/12/16 19:27:21;;;;;;;1999.90;999.90;;;20.50;68.00;;;;;;10624744;27;20100;-51
2021/12/16 19:32:28;;;;;;;1999.90;999.90;;;20.50;68.00;;;;;;10624785;27;20050;-52
2021/12/16 19:37:34;;;;;;;1999.90;999.90;;;20.50;68.00;;;;;;10625129;27;20039;-52
2021/12/16 19:42:39;;;;;;;1999.90;999.90;;;20.50;68.00;;;;;;10624193;27;20043;-52
2021/12/16 19:47:45;;;;;;;1999.90;999.90;;;20.40;67.90;;;;;;10623944;27;20054;-49
2021/12/16 19:52:50;;;;;;;1999.90;999.90;;;20.40;68.00;;;;;;10597401;27;20100;-65
2021/12/16 19:58:01;;;;;;;1999.90;999.90;;;20.50;68.90;;;;;;10562182;28;20120;-65
2021/12/16 20:03:08;;;;;;;1999.90;999.90;;;20.30;68.90;;;;;;10577134;28;20048;-64
2021/12/16 20:08:15;;;;;;;1999.90;999.90;;;20.20;69.40;;;;;;10580362;28;20043;-64
2021/12/16 20:13:22;;;;;;;;;;;20.10;69.90;;;;;;10580898;28;20044;-64
2021/12/16 20:18:30;;;;;;;1999.90;999.90;;;20.10;70.30;;;;;;10577855;28;19920;-64
2021/12/16 20:23:35;;;;;;;;;;;20.10;70.50;;;;;;10580509;28;20044;-64
2021/12/16 20:28:44;;;;;;;1999.90;999.90;;;20.10;70.60;;;;;;10579988;28;19927;-64
2021/12/16 20:33:53;;;;;;;1999.90;999.90;;;20.10;70.70;;;;;;10583656;28;20051;-62
2021/12/16 20:39:05;;;;;;;1999.90;999.90;;;20.10;70.80;;;;;;10589437;28;20466;-63
2021/12/16 20:44:15;;;;;;;1999.90;999.90;;;20.10;70.90;;;;;;10588559;28;20047;-63
2021/12/16 20:49:27;;;;;;;1999.90;999.90;;;20.10;71.00;;;;;;10588847;28;20052;-64
2021/12/16 20:54:35;;;;;;;1999.90;999.90;;;20.10;71.10;;;;;;10594466;27;20047;-63
2021/12/16 20:59:40;;;;;;;1999.90;999.90;;;20.00;71.10;;;;;;10631446;27;20035;-63
2021/12/16 21:04:48;;;;;;;1999.90;999.90;;;20.00;71.10;;;;;;10632436;27;20100;-63
2021/12/16 21:09:54;;;;;;;1999.90;999.90;;;20.00;71.10;;;;;;10630492;27;20047;-63
2021/12/16 21:14:59;;;;;;;1999.90;999.90;;;20.00;71.10;;;;;;10630706;27;20092;-63
2021/12/16 21:20:07;;;;;;;1999.90;999.90;;;20.10;71.20;;;;;;10630565;27;20047;-64
2021/12/16 21:25:13;;;;;;;1999.90;999.90;;;20.00;71.20;;;;;;10630276;27;20046;-65
2021/12/16 21:30:19;;;;;;;1999.90;999.90;;;20.00;71.20;;;;;;10630347;27;20047;-65
2021/12/16 21:35:25;;;;;;;1999.90;999.90;;;20.10;71.20;;;;;;10630041;27;20399;-64
2021/12/16 21:40:33;;;;;;;1999.90;999.90;;;20.00;71.20;;;;;;10630190;27;20047;-66
2021/12/16 21:45:38;;;;;;;1999.90;999.90;;;20.00;71.20;;;;;;10628850;27;20043;-65
2021/12/16 21:50:47;;;;;;;1999.90;999.90;;;20.00;71.20;;;;;;10627843;27;20088;-63
2021/12/16 21:55:53;;;;;;;1999.90;999.90;;;20.00;71.30;;;;;;10627955;27;20498;-64
2021/12/16 22:01:00;;;;;;;1999.90;999.90;;;20.00;71.30;;;;;;10627375;27;20051;-64
2021/12/16 22:06:08;;;;;;;1999.90;999.90;;;20.00;71.30;;;;;;10625976;27;20399;-65
2021/12/16 22:11:14;;;;;;;1999.90;999.90;;;20.00;71.30;;;;;;10626843;27;20051;-64
2021/12/16 22:16:21;;;;;;;1999.90;999.90;;;20.00;71.20;;;;;;10627466;27;20392;-64
2021/12/16 22:21:31;;;;;;;1999.90;999.90;;;20.00;71.20;;;;;;10624919;27;20035;-64
2021/12/16 22:26:37;;;;;;;1999.90;999.90;;;20.00;71.30;;;;;;10626529;27;20178;-63
2021/12/16 22:31:46;;;;;;;395.38;132.05;;;19.90;71.20;;;;;;10626678;27;20046;-63
2021/12/16 22:37:12;;;;;;;10.63;4.30;;;19.90;71.20;;;;;;10626609;27;20556;-65
2021/12/16 22:42:17;;;;;;;69.53;46.50;;;19.90;71.20;;;;;;10626749;27;20441;-65
2021/12/16 22:47:21;;;;;;;10.88;6.22;;;19.90;71.20;;;;;;10626362;27;20047;-64
2021/12/16 22:52:27;;;;;;;11.43;4.90;;;19.90;71.20;;;;;;10626388;27;20092;-65
2021/12/16 22:57:32;;;;;;;11.82;4.72;;;19.80;71.10;;;;;;10624491;27;20563;-64
2021/12/16 23:02:38;;;;;;;9.95;3.13;;;19.90;71.20;;;;;;10626141;27;20389;-64
2021/12/16 23:07:43;;;;;;;11.48;4.28;;;19.90;71.20;;;;;;10626452;27;20449;-65
2021/12/16 23:12:52;;;;;;;9.63;3.83;;;19.80;71.10;;;;;;10625623;27;20536;-65
2021/12/16 23:22:43;;;;;;;11.07;4.10;;;19.90;71.20;;;;;;10625278;27;20046;-65
2021/12/16 23:23:35;;;;;;;8.70;3.70;;;19.80;71.10;;;;;;10625527;27;20039;-63
2021/12/16 23:28:41;;;;;;;8.85;3.58;;;19.80;71.10;;;;;;10625559;27;20051;-65
2021/12/16 23:33:45;;;;;;;9.35;4.30;;;19.80;71.10;;;;;;10625390;27;20403;-64
2021/12/16 23:38:57;;;;;;;11.95;4.20;;;19.80;71.10;;;;;;10625109;27;20047;-64
2021/12/16 23:54:32;;;;;;;34.70;5.07;;;19.80;71.10;;;;;;10622295;27;20047;-64
2021/12/16 23:59:39;;;;;;;29.70;4.05;;;19.70;71.20;;;;;;10624417;27;20047;-63
